Middlesbrough, United Kingdom
Current Conditions -  °F | °C
As of 8:50 PM on Tuesday 21 Oct 2014 (Local Time) from EGNV Reporting Station
Clear Clear  
Wind Chill: 39°   Ceiling: Unl
Heat Index: 46°   Visibility: 6mi
Dew Point: 32°   Wind: 20mph
Humidity: 57%   Direction: 290°WNW
Pressure: 29.88"   Gusts: NA
Location:  54.57°N, 1.24°W
Report Text: EGNV 211950Z 29017KT 260V320 CAVOK 08/M00 Q1012
Loading
Personal Weather Stations






























Interactive Weather Map
Tropical Storm Tracking
New forecast layout! Learn more

10-Day Weather Forecast

Advertisements
Track Severe Weather on mobile